sensor_id;sensor_type;location;lat;lon;timestamp;pressure;altitude;pressure_sealevel;temperature;humidity
24788;BME280;12883;52.662;5.196;2023-05-12T00:00:39;101784.63;;;12.64;100.00
24788;BME280;12883;52.662;5.196;2023-05-12T00:03:05;101791.75;;;12.64;100.00
24788;BME280;12883;52.662;5.196;2023-05-12T00:05:30;101784.78;;;12.63;100.00
24788;BME280;12883;52.662;5.196;2023-05-12T00:07:56;101793.06;;;12.68;100.00
24788;BME280;12883;52.662;5.196;2023-05-12T00:10:21;101797.75;;;12.66;100.00
24788;BME280;12883;52.662;5.196;2023-05-12T00:12:47;101774.91;;;12.57;100.00
24788;BME280;12883;52.662;5.196;2023-05-12T00:15:12;101786.53;;;12.70;100.00
24788;BME280;12883;52.662;5.196;2023-05-12T00:17:38;101771.88;;;12.60;100.00
24788;BME280;12883;52.662;5.196;2023-05-12T00:20:03;101783.78;;;12.64;100.00
24788;BME280;12883;52.662;5.196;2023-05-12T00:22:29;101783.41;;;12.67;100.00
24788;BME280;12883;52.662;5.196;2023-05-12T00:24:55;101766.66;;;12.52;100.00
24788;BME280;12883;52.662;5.196;2023-05-12T00:27:20;101788.19;;;12.71;100.00
24788;BME280;12883;52.662;5.196;2023-05-12T00:29:46;101779.72;;;12.68;100.00
24788;BME280;12883;52.662;5.196;2023-05-12T00:32:11;101784.66;;;12.71;100.00
24788;BME280;12883;52.662;5.196;2023-05-12T00:34:36;101776.69;;;12.71;100.00
24788;BME280;12883;52.662;5.196;2023-05-12T00:37:02;101773.66;;;12.74;100.00
24788;BME280;12883;52.662;5.196;2023-05-12T00:39:27;101779.56;;;12.69;100.00
24788;BME280;12883;52.662;5.196;2023-05-12T00:41:56;101762.91;;;12.67;100.00
24788;BME280;12883;52.662;5.196;2023-05-12T00:44:22;101773.84;;;12.72;100.00
24788;BME280;12883;52.662;5.196;2023-05-12T00:46:47;101776.22;;;12.67;100.00
24788;BME280;12883;52.662;5.196;2023-05-12T00:49:13;101768.91;;;12.69;100.00
24788;BME280;12883;52.662;5.196;2023-05-12T00:51:39;101723.97;;;12.45;100.00
24788;BME280;12883;52.662;5.196;2023-05-12T00:54:04;101763.31;;;12.64;100.00
24788;BME280;12883;52.662;5.196;2023-05-12T00:56:30;101757.28;;;12.56;100.00
24788;BME280;12883;52.662;5.196;2023-05-12T00:58:59;101753.22;;;12.60;100.00
24788;BME280;12883;52.662;5.196;2023-05-12T01:01:25;101757.16;;;12.64;100.00
24788;BME280;12883;52.662;5.196;2023-05-12T01:03:51;101758.56;;;12.60;100.00
24788;BME280;12883;52.662;5.196;2023-05-12T01:06:28;101753.22;;;12.60;100.00
24788;BME280;12883;52.662;5.196;2023-05-12T01:08:54;101744.59;;;12.58;100.00
24788;BME280;12883;52.662;5.196;2023-05-12T01:11:19;101738.06;;;12.60;100.00
24788;BME280;12883;52.662;5.196;2023-05-12T01:13:46;101734.38;;;12.61;100.00
24788;BME280;12883;52.662;5.196;2023-05-12T01:16:13;101725.91;;;12.51;100.00
24788;BME280;12883;52.662;5.196;2023-05-12T01:18:41;101714.22;;;12.52;100.00
24788;BME280;12883;52.662;5.196;2023-05-12T01:21:09;101710.84;;;12.44;100.00
24788;BME280;12883;52.662;5.196;2023-05-12T01:23:39;101720.75;;;12.50;100.00
24788;BME280;12883;52.662;5.196;2023-05-12T01:26:07;101726.03;;;12.64;100.00
24788;BME280;12883;52.662;5.196;2023-05-12T01:28:34;101697.19;;;12.47;100.00
24788;BME280;12883;52.662;5.196;2023-05-12T01:31:00;101706.94;;;12.61;100.00
24788;BME280;12883;52.662;5.196;2023-05-12T01:33:27;101721.34;;;12.66;100.00
24788;BME280;12883;52.662;5.196;2023-05-12T01:35:53;101719.50;;;12.67;100.00
24788;BME280;12883;52.662;5.196;2023-05-12T01:38:18;101712.53;;;12.66;100.00
24788;BME280;12883;52.662;5.196;2023-05-12T01:40:43;101714.81;;;12.69;100.00
24788;BME280;12883;52.662;5.196;2023-05-12T01:43:09;101713.53;;;12.65;100.00
24788;BME280;12883;52.662;5.196;2023-05-12T01:45:34;101717.47;;;12.69;100.00
24788;BME280;12883;52.662;5.196;2023-05-12T01:48:00;101709.09;;;12.72;100.00
24788;BME280;12883;52.662;5.196;2023-05-12T01:50:26;101710.53;;;12.74;100.00
24788;BME280;12883;52.662;5.196;2023-05-12T01:52:51;101715.50;;;12.77;100.00
24788;BME280;12883;52.662;5.196;2023-05-12T01:55:16;101714.66;;;12.77;100.00
24788;BME280;12883;52.662;5.196;2023-05-12T01:57:42;101701.75;;;12.74;100.00
24788;BME280;12883;52.662;5.196;2023-05-12T02:00:07;101711.66;;;12.80;100.00
24788;BME280;12883;52.662;5.196;2023-05-12T02:02:33;101709.53;;;12.75;100.00
24788;BME280;12883;52.662;5.196;2023-05-12T02:08:20;101715.38;;;12.85;100.00
24788;BME280;12883;52.662;5.196;2023-05-12T02:10:46;101713.91;;;12.83;100.00
24788;BME280;12883;52.662;5.196;2023-05-12T02:13:11;101722.34;;;12.86;100.00
24788;BME280;12883;52.662;5.196;2023-05-12T02:15:37;101719.84;;;12.85;100.00
24788;BME280;12883;52.662;5.196;2023-05-12T02:18:02;101717.84;;;12.87;100.00
24788;BME280;12883;52.662;5.196;2023-05-12T02:20:28;101709.16;;;12.78;100.00
24788;BME280;12883;52.662;5.196;2023-05-12T02:22:54;101718.88;;;12.86;100.00
24788;BME280;12883;52.662;5.196;2023-05-12T02:25:19;101712.13;;;12.90;100.00
24788;BME280;12883;52.662;5.196;2023-05-12T02:27:45;101720.75;;;12.92;100.00
24788;BME280;12883;52.662;5.196;2023-05-12T02:30:10;101722.78;;;12.90;100.00
24788;BME280;12883;52.662;5.196;2023-05-12T02:32:36;101727.50;;;12.88;100.00
24788;BME280;12883;52.662;5.196;2023-05-12T02:35:01;101724.81;;;12.88;100.00
24788;BME280;12883;52.662;5.196;2023-05-12T02:37:26;101720.50;;;12.87;100.00
24788;BME280;12883;52.662;5.196;2023-05-12T02:39:52;101723.19;;;12.87;100.00
24788;BME280;12883;52.662;5.196;2023-05-12T02:42:17;101712.13;;;12.90;100.00
24788;BME280;12883;52.662;5.196;2023-05-12T02:44:42;101720.69;;;12.85;100.00
24788;BME280;12883;52.662;5.196;2023-05-12T02:47:08;101714.75;;;12.83;100.00
24788;BME280;12883;52.662;5.196;2023-05-12T02:49:33;101714.53;;;12.85;100.00
24788;BME280;12883;52.662;5.196;2023-05-12T02:51:58;101717.34;;;12.77;100.00
24788;BME280;12883;52.662;5.196;2023-05-12T02:54:23;101732.94;;;12.80;100.00
24788;BME280;12883;52.662;5.196;2023-05-12T02:56:49;101718.16;;;12.77;100.00
24788;BME280;12883;52.662;5.196;2023-05-12T02:59:14;101721.00;;;12.76;100.00
24788;BME280;12883;52.662;5.196;2023-05-12T03:01:40;101721.00;;;12.76;100.00
24788;BME280;12883;52.662;5.196;2023-05-12T03:04:05;101718.53;;;12.74;100.00
24788;BME280;12883;52.662;5.196;2023-05-12T03:06:31;101730.03;;;12.75;100.00
24788;BME280;12883;52.662;5.196;2023-05-12T03:08:56;101730.38;;;12.72;100.00
24788;BME280;12883;52.662;5.196;2023-05-12T03:11:21;101723.81;;;12.68;100.00
24788;BME280;12883;52.662;5.196;2023-05-12T03:13:47;101722.53;;;12.64;100.00
24788;BME280;12883;52.662;5.196;2023-05-12T03:16:13;101727.84;;;12.64;100.00
24788;BME280;12883;52.662;5.196;2023-05-12T03:18:38;101695.31;;;12.47;100.00
24788;BME280;12883;52.662;5.196;2023-05-12T03:21:03;101727.84;;;12.64;100.00
24788;BME280;12883;52.662;5.196;2023-05-12T03:23:29;101715.31;;;12.58;100.00
24788;BME280;12883;52.662;5.196;2023-05-12T03:25:55;101707.66;;;12.48;100.00
24788;BME280;12883;52.662;5.196;2023-05-12T03:28:21;101719.25;;;12.62;100.00
24788;BME280;12883;52.662;5.196;2023-05-12T03:30:48;101712.63;;;12.58;100.00
24788;BME280;12883;52.662;5.196;2023-05-12T03:33:13;101707.97;;;12.60;100.00
24788;BME280;12883;52.662;5.196;2023-05-12T03:35:39;101697.00;;;12.48;100.00
24788;BME280;12883;52.662;5.196;2023-05-12T03:38:04;101715.97;;;12.60;100.00
24788;BME280;12883;52.662;5.196;2023-05-12T03:40:29;101714.31;;;12.59;100.00
24788;BME280;12883;52.662;5.196;2023-05-12T03:42:55;101677.66;;;12.40;100.00
24788;BME280;12883;52.662;5.196;2023-05-12T03:45:20;101727.22;;;12.62;100.00
24788;BME280;12883;52.662;5.196;2023-05-12T03:47:46;101726.59;;;12.60;100.00
24788;BME280;12883;52.662;5.196;2023-05-12T03:50:11;101718.81;;;12.58;100.00
24788;BME280;12883;52.662;5.196;2023-05-12T03:52:37;101721.47;;;12.58;100.00
24788;BME280;12883;52.662;5.196;2023-05-12T03:55:04;101716.31;;;12.57;100.00
24788;BME280;12883;52.662;5.196;2023-05-12T03:57:30;101716.09;;;12.52;100.00
24788;BME280;12883;52.662;5.196;2023-05-12T03:59:55;101717.97;;;12.58;100.00
24788;BME280;12883;52.662;5.196;2023-05-12T04:02:20;101715.69;;;12.55;100.00
24788;BME280;12883;52.662;5.196;2023-05-12T04:04:46;101722.66;;;12.56;100.00
24788;BME280;12883;52.662;5.196;2023-05-12T04:07:11;101716.72;;;12.54;100.00
24788;BME280;12883;52.662;5.196;2023-05-12T04:09:36;101726.53;;;12.53;100.00
24788;BME280;12883;52.662;5.196;2023-05-12T04:12:02;101722.03;;;12.54;100.00
24788;BME280;12883;52.662;5.196;2023-05-12T04:14:27;101729.19;;;12.53;100.00
24788;BME280;12883;52.662;5.196;2023-05-12T04:16:53;101724.25;;;12.50;100.00
24788;BME280;12883;52.662;5.196;2023-05-12T04:19:18;101734.50;;;12.53;100.00
24788;BME280;12883;52.662;5.196;2023-05-12T04:21:43;101727.34;;;12.54;100.00
24788;BME280;12883;52.662;5.196;2023-05-12T04:24:09;101723.69;;;12.55;100.00
24788;BME280;12883;52.662;5.196;2023-05-12T04:26:34;101741.31;;;12.56;100.00
24788;BME280;12883;52.662;5.196;2023-05-12T04:29:00;101743.34;;;12.54;100.00
24788;BME280;12883;52.662;5.196;2023-05-12T04:31:25;101734.31;;;12.55;100.00
24788;BME280;12883;52.662;5.196;2023-05-12T04:33:50;101731.03;;;12.53;100.00
24788;BME280;12883;52.662;5.196;2023-05-12T04:36:16;101733.94;;;12.58;100.00
24788;BME280;12883;52.662;5.196;2023-05-12T04:38:41;101733.56;;;12.61;100.00
24788;BME280;12883;52.662;5.196;2023-05-12T04:41:07;101738.50;;;12.64;100.00
24788;BME280;12883;52.662;5.196;2023-05-12T04:43:32;101738.91;;;12.61;100.00
24788;BME280;12883;52.662;5.196;2023-05-12T04:45:57;101731.53;;;12.63;100.00
24788;BME280;12883;52.662;5.196;2023-05-12T04:48:23;101737.50;;;12.65;100.00
24788;BME280;12883;52.662;5.196;2023-05-12T04:50:48;101738.91;;;12.61;100.00
24788;BME280;12883;52.662;5.196;2023-05-12T04:53:14;101736.88;;;12.63;100.00
24788;BME280;12883;52.662;5.196;2023-05-12T04:55:40;101749.81;;;12.66;100.00
24788;BME280;12883;52.662;5.196;2023-05-12T04:58:06;101743.47;;;12.67;100.00
24788;BME280;12883;52.662;5.196;2023-05-12T05:00:32;101746.94;;;12.67;100.00
24788;BME280;12883;52.662;5.196;2023-05-12T05:02:57;101747.38;;;12.71;100.00
24788;BME280;12883;52.662;5.196;2023-05-12T05:05:22;101749.25;;;12.70;100.00
24788;BME280;12883;52.662;5.196;2023-05-12T05:07:48;101753.38;;;12.73;100.00
24788;BME280;12883;52.662;5.196;2023-05-12T05:10:13;101751.69;;;12.72;100.00
24788;BME280;12883;52.662;5.196;2023-05-12T05:12:39;101756.03;;;12.73;100.00
24788;BME280;12883;52.662;5.196;2023-05-12T05:15:04;101724.56;;;12.62;100.00
24788;BME280;12883;52.662;5.196;2023-05-12T05:17:30;101722.84;;;12.54;100.00
24788;BME280;12883;52.662;5.196;2023-05-12T05:19:55;101758.94;;;12.78;100.00
24788;BME280;12883;52.662;5.196;2023-05-12T05:22:21;101733.63;;;12.67;100.00
24788;BME280;12883;52.662;5.196;2023-05-12T05:24:46;101762.59;;;12.77;100.00
24788;BME280;12883;52.662;5.196;2023-05-12T05:27:11;101718.81;;;12.58;100.00
24788;BME280;12883;52.662;5.196;2023-05-12T05:29:37;101760.84;;;12.84;100.00
24788;BME280;12883;52.662;5.196;2023-05-12T05:32:03;101771.94;;;12.87;100.00
24788;BME280;12883;52.662;5.196;2023-05-12T05:34:28;101775.25;;;12.89;100.00
24788;BME280;12883;52.662;5.196;2023-05-12T05:36:54;101780.19;;;12.92;100.00
24788;BME280;12883;52.662;5.196;2023-05-12T05:39:19;101768.47;;;12.87;100.00
24788;BME280;12883;52.662;5.196;2023-05-12T05:41:45;101780.66;;;12.96;100.00
24788;BME280;12883;52.662;5.196;2023-05-12T05:44:10;101777.50;;;13.07;100.00
24788;BME280;12883;52.662;5.196;2023-05-12T05:46:35;101784.84;;;13.05;100.00
24788;BME280;12883;52.662;5.196;2023-05-12T05:49:01;101787.50;;;13.05;100.00
24788;BME280;12883;52.662;5.196;2023-05-12T05:51:26;101786.47;;;13.06;100.00
24788;BME280;12883;52.662;5.196;2023-05-12T05:53:51;101781.16;;;13.06;100.00
24788;BME280;12883;52.662;5.196;2023-05-12T05:56:17;101790.25;;;13.11;100.00
24788;BME280;12883;52.662;5.196;2023-05-12T05:58:42;101798.03;;;13.13;100.00
24788;BME280;12883;52.662;5.196;2023-05-12T06:01:07;101802.38;;;13.14;100.00
24788;BME280;12883;52.662;5.196;2023-05-12T06:03:33;101798.88;;;13.13;100.00
24788;BME280;12883;52.662;5.196;2023-05-12T06:05:58;101803.78;;;13.16;100.00
24788;BME280;12883;52.662;5.196;2023-05-12T06:08:23;101803.00;;;13.16;100.00
24788;BME280;12883;52.662;5.196;2023-05-12T06:10:49;101804.25;;;13.20;100.00
24788;BME280;12883;52.662;5.196;2023-05-12T06:13:14;101809.81;;;13.25;100.00
24788;BME280;12883;52.662;5.196;2023-05-12T06:15:39;101813.13;;;13.27;100.00
24788;BME280;12883;52.662;5.196;2023-05-12T06:18:05;101818.09;;;13.30;100.00
24788;BME280;12883;52.662;5.196;2023-05-12T06:20:33;101807.59;;;13.28;100.00
24788;BME280;12883;52.662;5.196;2023-05-12T06:22:58;101825.31;;;13.36;100.00
24788;BME280;12883;52.662;5.196;2023-05-12T06:25:24;101817.53;;;13.41;100.00
24788;BME280;12883;52.662;5.196;2023-05-12T06:27:50;101827.44;;;13.47;100.00
24788;BME280;12883;52.662;5.196;2023-05-12T06:30:16;101829.91;;;13.48;100.00
24788;BME280;12883;52.662;5.196;2023-05-12T06:32:42;101819.69;;;13.52;100.00
24788;BME280;12883;52.662;5.196;2023-05-12T06:35:07;101821.34;;;13.53;100.00
24788;BME280;12883;52.662;5.196;2023-05-12T06:37:33;101818.31;;;13.56;100.00
24788;BME280;12883;52.662;5.196;2023-05-12T06:39:58;101824.88;;;13.60;100.00
24788;BME280;12883;52.662;5.196;2023-05-12T06:42:23;101828.41;;;13.67;100.00
24788;BME280;12883;52.662;5.196;2023-05-12T06:44:49;101827.97;;;13.63;100.00
24788;BME280;12883;52.662;5.196;2023-05-12T06:47:14;101834.16;;;13.64;100.00
24788;BME280;12883;52.662;5.196;2023-05-12T06:49:40;101836.81;;;13.64;100.00
24788;BME280;12883;52.662;5.196;2023-05-12T06:52:05;101847.97;;;13.74;100.00
24788;BME280;12883;52.662;5.196;2023-05-12T06:54:31;101844.09;;;13.76;100.00
24788;BME280;12883;52.662;5.196;2023-05-12T06:56:56;101839.19;;;13.80;100.00
24788;BME280;12883;52.662;5.196;2023-05-12T06:59:22;101841.69;;;13.88;100.00
24788;BME280;12883;52.662;5.196;2023-05-12T07:01:47;101849.69;;;13.88;100.00
24788;BME280;12883;52.662;5.196;2023-05-12T07:04:12;101855.91;;;13.95;100.00
24788;BME280;12883;52.662;5.196;2023-05-12T07:06:38;101846.50;;;13.99;100.00
24788;BME280;12883;52.662;5.196;2023-05-12T07:09:03;101854.59;;;14.12;100.00
24788;BME280;12883;52.662;5.196;2023-05-12T07:11:29;101860.97;;;14.11;100.00
24788;BME280;12883;52.662;5.196;2023-05-12T07:13:54;101811.47;;;13.81;100.00
24788;BME280;12883;52.662;5.196;2023-05-12T07:16:19;101858.28;;;14.11;100.00
24788;BME280;12883;52.662;5.196;2023-05-12T07:18:45;101844.41;;;14.22;100.00
24788;BME280;12883;52.662;5.196;2023-05-12T07:21:11;101873.19;;;14.26;100.00
24788;BME280;12883;52.662;5.196;2023-05-12T07:23:38;101865.81;;;14.28;100.00
24788;BME280;12883;52.662;5.196;2023-05-12T07:26:04;101871.59;;;14.32;100.00
24788;BME280;12883;52.662;5.196;2023-05-12T07:28:31;101857.81;;;14.35;100.00
24788;BME280;12883;52.662;5.196;2023-05-12T07:31:00;101841.63;;;14.36;100.00
24788;BME280;12883;52.662;5.196;2023-05-12T07:33:25;101858.91;;;14.47;100.00
24788;BME280;12883;52.662;5.196;2023-05-12T07:35:51;101855.16;;;14.41;100.00
24788;BME280;12883;52.662;5.196;2023-05-12T07:38:16;101869.59;;;14.47;100.00
24788;BME280;12883;52.662;5.196;2023-05-12T07:40:42;101855.16;;;14.35;100.00
24788;BME280;12883;52.662;5.196;2023-05-12T07:43:07;101861.13;;;14.37;100.00
24788;BME280;12883;52.662;5.196;2023-05-12T07:45:32;101857.47;;;14.44;100.00
24788;BME280;12883;52.662;5.196;2023-05-12T07:47:58;101865.13;;;14.54;100.00
24788;BME280;12883;52.662;5.196;2023-05-12T07:50:23;101858.69;;;14.42;100.00
24788;BME280;12883;52.662;5.196;2023-05-12T07:52:49;101879.25;;;14.48;100.00
24788;BME280;12883;52.662;5.196;2023-05-12T07:55:16;101878.72;;;14.59;100.00
24788;BME280;12883;52.662;5.196;2023-05-12T07:57:42;101877.06;;;14.64;100.00
24788;BME280;12883;52.662;5.196;2023-05-12T08:00:09;101873.94;;;14.54;100.00
24788;BME280;12883;52.662;5.196;2023-05-12T08:02:39;101876.66;;;14.61;100.00
24788;BME280;12883;52.662;5.196;2023-05-12T08:05:06;101880.00;;;14.76;100.00
24788;BME280;12883;52.662;5.196;2023-05-12T08:07:31;101905.69;;;14.77;100.00
24788;BME280;12883;52.662;5.196;2023-05-12T08:09:57;101899.34;;;14.84;100.00
24788;BME280;12883;52.662;5.196;2023-05-12T08:12:22;101884.91;;;14.78;100.00
24788;BME280;12883;52.662;5.196;2023-05-12T08:14:47;101885.81;;;14.98;100.00
24788;BME280;12883;52.662;5.196;2023-05-12T08:17:13;101883.38;;;14.97;100.00
24788;BME280;12883;52.662;5.196;2023-05-12T08:19:38;101880.28;;;15.00;100.00
24788;BME280;12883;52.662;5.196;2023-05-12T08:22:03;101880.28;;;14.93;100.00
24788;BME280;12883;52.662;5.196;2023-05-12T08:24:29;101896.78;;;15.16;100.00
24788;BME280;12883;52.662;5.196;2023-05-12T08:26:54;101900.66;;;15.20;100.00
24788;BME280;12883;52.662;5.196;2023-05-12T08:29:20;101904.00;;;15.29;100.00
24788;BME280;12883;52.662;5.196;2023-05-12T08:31:45;101904.25;;;15.40;100.00
24788;BME280;12883;52.662;5.196;2023-05-12T08:34:11;101903.63;;;15.32;100.00
24788;BME280;12883;52.662;5.196;2023-05-12T08:36:37;101896.22;;;15.53;100.00
24788;BME280;12883;52.662;5.196;2023-05-12T08:39:03;101900.38;;;15.69;100.00
24788;BME280;12883;52.662;5.196;2023-05-12T08:44:21;101909.44;;;15.94;100.00
24788;BME280;12883;52.662;5.196;2023-05-12T08:46:47;101912.28;;;15.86;100.00
24788;BME280;12883;52.662;5.196;2023-05-12T08:49:19;101918.06;;;15.89;100.00
24788;BME280;12883;52.662;5.196;2023-05-12T08:51:47;101911.47;;;15.98;100.00
24788;BME280;12883;52.662;5.196;2023-05-12T08:54:12;101915.38;;;16.02;100.00
24788;BME280;12883;52.662;5.196;2023-05-12T08:56:41;101922.16;;;16.05;100.00
24788;BME280;12883;52.662;5.196;2023-05-12T08:59:09;101894.13;;;16.14;100.00
24788;BME280;12883;52.662;5.196;2023-05-12T09:01:35;101916.38;;;16.40;100.00
24788;BME280;12883;52.662;5.196;2023-05-12T09:04:01;101919.47;;;16.31;100.00
24788;BME280;12883;52.662;5.196;2023-05-12T09:06:28;101922.94;;;16.44;100.00
24788;BME280;12883;52.662;5.196;2023-05-12T09:08:53;101919.03;;;16.47;100.00
24788;BME280;12883;52.662;5.196;2023-05-12T09:11:20;101921.31;;;16.50;100.00
24788;BME280;12883;52.662;5.196;2023-05-12T09:13:53;101927.03;;;16.66;100.00
24788;BME280;12883;52.662;5.196;2023-05-12T09:16:24;101924.50;;;16.71;100.00
24788;BME280;12883;52.662;5.196;2023-05-12T09:18:56;101937.88;;;16.84;100.00
24788;BME280;12883;52.662;5.196;2023-05-12T09:21:22;101946.34;;;16.81;100.00
24788;BME280;12883;52.662;5.196;2023-05-12T09:26:17;101932.66;;;17.02;100.00
24788;BME280;12883;52.662;5.196;2023-05-12T09:28:43;101938.88;;;16.90;100.00
24788;BME280;12883;52.662;5.196;2023-05-12T09:31:19;101933.63;;;17.14;100.00
24788;BME280;12883;52.662;5.196;2023-05-12T09:33:45;101939.19;;;17.13;100.00
24788;BME280;12883;52.662;5.196;2023-05-12T09:36:15;101937.94;;;17.15;100.00
24788;BME280;12883;52.662;5.196;2023-05-12T09:38:40;101952.94;;;17.29;100.00
24788;BME280;12883;52.662;5.196;2023-05-12T09:41:05;101954.56;;;17.37;100.00
24788;BME280;12883;52.662;5.196;2023-05-12T09:43:31;101954.78;;;17.29;100.00
24788;BME280;12883;52.662;5.196;2023-05-12T09:45:56;101957.47;;;17.66;100.00
24788;BME280;12883;52.662;5.196;2023-05-12T09:48:28;101951.91;;;17.61;100.00
24788;BME280;12883;52.662;5.196;2023-05-12T09:50:54;101954.22;;;17.58;100.00
24788;BME280;12883;52.662;5.196;2023-05-12T09:53:19;101961.09;;;17.78;100.00
24788;BME280;12883;52.662;5.196;2023-05-12T09:55:47;101927.66;;;17.74;100.00
24788;BME280;12883;52.662;5.196;2023-05-12T09:58:15;101957.56;;;17.84;100.00
24788;BME280;12883;52.662;5.196;2023-05-12T10:00:42;101946.41;;;17.56;100.00
24788;BME280;12883;52.662;5.196;2023-05-12T10:03:16;101963.25;;;17.94;100.00
24788;BME280;12883;52.662;5.196;2023-05-12T10:05:52;101973.66;;;17.84;100.00
24788;BME280;12883;52.662;5.196;2023-05-12T10:08:21;101970.75;;;18.10;100.00
24788;BME280;12883;52.662;5.196;2023-05-12T10:10:50;101974.47;;;18.09;100.00
24788;BME280;12883;52.662;5.196;2023-05-12T10:13:16;101973.97;;;18.01;100.00
24788;BME280;12883;52.662;5.196;2023-05-12T10:15:43;101956.72;;;17.84;100.00
24788;BME280;12883;52.662;5.196;2023-05-12T10:18:09;101983.75;;;18.13;100.00
24788;BME280;12883;52.662;5.196;2023-05-12T10:20:35;101975.63;;;18.20;100.00
24788;BME280;12883;52.662;5.196;2023-05-12T10:23:01;101976.50;;;18.14;100.00
24788;BME280;12883;52.662;5.196;2023-05-12T10:25:28;101952.09;;;18.15;100.00
24788;BME280;12883;52.662;5.196;2023-05-12T10:27:55;101977.81;;;18.54;100.00
24788;BME280;12883;52.662;5.196;2023-05-12T10:30:21;101948.03;;;18.55;100.00
24788;BME280;12883;52.662;5.196;2023-05-12T10:32:47;101972.50;;;18.47;100.00
24788;BME280;12883;52.662;5.196;2023-05-12T10:35:13;101983.50;;;18.64;100.00
24788;BME280;12883;52.662;5.196;2023-05-12T10:37:41;101981.09;;;18.56;100.00
24788;BME280;12883;52.662;5.196;2023-05-12T10:40:07;101989.09;;;18.62;100.00
24788;BME280;12883;52.662;5.196;2023-05-12T10:42:40;101985.19;;;18.58;100.00
24788;BME280;12883;52.662;5.196;2023-05-12T10:45:16;101983.88;;;18.67;100.00
24788;BME280;12883;52.662;5.196;2023-05-12T10:47:42;101986.56;;;18.85;100.00
24788;BME280;12883;52.662;5.196;2023-05-12T10:50:08;101982.59;;;18.88;100.00
24788;BME280;12883;52.662;5.196;2023-05-12T10:52:38;101992.84;;;18.79;100.00
24788;BME280;12883;52.662;5.196;2023-05-12T10:55:03;101994.34;;;18.75;100.00
24788;BME280;12883;52.662;5.196;2023-05-12T10:57:30;102005.56;;;18.90;100.00
24788;BME280;12883;52.662;5.196;2023-05-12T10:59:58;101992.25;;;18.95;100.00
24788;BME280;12883;52.662;5.196;2023-05-12T11:02:28;101983.94;;;18.97;100.00
24788;BME280;12883;52.662;5.196;2023-05-12T11:04:58;101989.88;;;19.23;100.00
24788;BME280;12883;52.662;5.196;2023-05-12T11:07:25;101982.34;;;19.43;100.00
24788;BME280;12883;52.662;5.196;2023-05-12T11:09:52;101978.69;;;19.38;100.00
24788;BME280;12883;52.662;5.196;2023-05-12T11:12:17;101972.22;;;19.68;100.00
24788;BME280;12883;52.662;5.196;2023-05-12T11:14:44;101962.84;;;19.59;100.00
24788;BME280;12883;52.662;5.196;2023-05-12T11:17:10;101976.81;;;19.38;100.00
24788;BME280;12883;52.662;5.196;2023-05-12T11:19:37;101959.88;;;19.49;100.00
24788;BME280;12883;52.662;5.196;2023-05-12T11:22:08;101985.13;;;19.78;100.00
24788;BME280;12883;52.662;5.196;2023-05-12T11:24:34;101995.78;;;19.73;100.00
24788;BME280;12883;52.662;5.196;2023-05-12T11:27:00;101983.06;;;19.91;100.00
24788;BME280;12883;52.662;5.196;2023-05-12T11:29:25;101985.41;;;19.88;100.00
24788;BME280;12883;52.662;5.196;2023-05-12T11:31:51;101999.81;;;19.93;100.00
24788;BME280;12883;52.662;5.196;2023-05-12T11:34:21;101953.63;;;19.78;100.00
24788;BME280;12883;52.662;5.196;2023-05-12T11:36:47;101995.72;;;20.02;100.00
24788;BME280;12883;52.662;5.196;2023-05-12T11:39:16;102000.59;;;19.82;100.00
24788;BME280;12883;52.662;5.196;2023-05-12T11:41:42;101998.53;;;19.84;100.00
24788;BME280;12883;52.662;5.196;2023-05-12T11:44:17;101986.47;;;19.98;100.00
24788;BME280;12883;52.662;5.196;2023-05-12T11:46:59;101994.09;;;20.01;100.00
24788;BME280;12883;52.662;5.196;2023-05-12T11:49:26;101986.88;;;20.13;100.00
24788;BME280;12883;52.662;5.196;2023-05-12T11:51:53;102000.22;;;20.20;100.00
24788;BME280;12883;52.662;5.196;2023-05-12T11:54:20;101994.41;;;20.34;100.00
24788;BME280;12883;52.662;5.196;2023-05-12T11:56:50;101986.53;;;20.44;100.00
24788;BME280;12883;52.662;5.196;2023-05-12T11:59:33;101995.53;;;20.38;100.00
24788;BME280;12883;52.662;5.196;2023-05-12T12:02:00;101998.00;;;20.40;100.00
24788;BME280;12883;52.662;5.196;2023-05-12T12:04:37;101994.03;;;20.42;100.00
24788;BME280;12883;52.662;5.196;2023-05-12T12:07:03;101995.66;;;20.66;100.00
24788;BME280;12883;52.662;5.196;2023-05-12T12:09:34;102013.03;;;20.47;100.00
24788;BME280;12883;52.662;5.196;2023-05-12T12:12:01;101995.66;;;20.66;100.00
24788;BME280;12883;52.662;5.196;2023-05-12T12:14:27;102003.63;;;20.84;100.00
24788;BME280;12883;52.662;5.196;2023-05-12T12:16:52;102017.47;;;20.87;100.00
24788;BME280;12883;52.662;5.196;2023-05-12T12:19:18;102020.19;;;20.64;100.00
24788;BME280;12883;52.662;5.196;2023-05-12T12:21:43;102030.84;;;20.71;100.00
24788;BME280;12883;52.662;5.196;2023-05-12T12:24:08;102026.84;;;20.73;100.00
24788;BME280;12883;52.662;5.196;2023-05-12T12:26:34;102032.94;;;20.80;100.00
24788;BME280;12883;52.662;5.196;2023-05-12T12:28:59;102032.25;;;20.73;100.00
24788;BME280;12883;52.662;5.196;2023-05-12T12:31:25;102045.06;;;20.55;100.00
24788;BME280;12883;52.662;5.196;2023-05-12T12:33:50;102054.31;;;20.48;100.00
24788;BME280;12883;52.662;5.196;2023-05-12T12:36:15;102043.75;;;20.58;100.00
24788;BME280;12883;52.662;5.196;2023-05-12T12:38:41;102043.88;;;20.51;100.00
24788;BME280;12883;52.662;5.196;2023-05-12T12:41:06;102035.91;;;20.56;100.00
24788;BME280;12883;52.662;5.196;2023-05-12T12:43:32;102027.00;;;20.67;100.00